Time;durP1;ratioP1;P1;durP2;ratioP2;P2;SDS_P1;SDS_P2;PMS_P1;PMS_P2;Temp;Humidity;BMP_temperature;BMP_pressure;BME280_temperature;BME280_humidity;BME280_pressure;Samples;Min_cycle;Max_cycle;Signal;HPM_P1;HPM_P2
2024/01/20 00:01:38;;;;;;;38.13;21.55;;;0.60;99.90;;;;;;5049460;28;20380;-68
2024/01/20 00:04:04;;;;;;;38.08;22.67;;;0.60;99.90;;;;;;5051961;28;20041;-67
2024/01/20 00:06:30;;;;;;;45.13;27.75;;;0.60;99.90;;;;;;5047401;28;20051;-68
2024/01/20 00:08:55;;;;;;;42.58;23.35;;;0.60;99.90;;;;;;5035092;28;20079;-66
2024/01/20 00:11:21;;;;;;;42.28;25.52;;;0.60;99.90;;;;;;5048876;28;20065;-66
2024/01/20 00:13:47;;;;;;;44.85;24.77;;;0.60;99.90;;;;;;5052052;28;20116;-66
2024/01/20 00:16:12;;;;;;;46.40;25.90;;;0.60;99.90;;;;;;5047231;28;20415;-66
2024/01/20 00:18:38;;;;;;;38.53;22.40;;;0.50;99.90;;;;;;5046483;28;20041;-66
2024/01/20 00:21:04;;;;;;;46.45;25.25;;;0.50;99.90;;;;;;5051440;28;20083;-66
2024/01/20 00:23:29;;;;;;;39.95;24.45;;;0.50;99.90;;;;;;5046495;28;20039;-66
2024/01/20 00:25:55;;;;;;;42.40;24.33;;;0.50;99.90;;;;;;5045611;28;20045;-66
2024/01/20 00:28:20;;;;;;;43.22;25.25;;;0.50;99.90;;;;;;5049966;28;20055;-66
2024/01/20 00:30:46;;;;;;;40.47;23.08;;;0.50;99.90;;;;;;5050251;28;20054;-66
2024/01/20 00:33:12;;;;;;;41.13;23.52;;;0.50;99.90;;;;;;5031215;28;20124;-66
2024/01/20 00:35:42;;;;;;;42.33;24.17;;;0.50;99.90;;;;;;5041577;28;20128;-66
2024/01/20 00:38:08;;;;;;;39.40;22.38;;;0.40;99.90;;;;;;5051690;28;20072;-66
2024/01/20 00:40:33;;;;;;;41.03;24.00;;;0.40;99.90;;;;;;5044116;28;20069;-66
2024/01/20 00:42:59;;;;;;;43.15;25.17;;;0.50;99.90;;;;;;5046109;28;20052;-66
2024/01/20 00:45:24;;;;;;;40.88;22.83;;;0.40;99.90;;;;;;5050051;28;20505;-66
2024/01/20 00:47:50;;;;;;;41.47;23.42;;;0.40;99.90;;;;;;5051588;28;20037;-66
2024/01/20 00:50:16;;;;;;;44.13;23.95;;;0.40;99.90;;;;;;5035930;28;20037;-67
2024/01/20 00:52:41;;;;;;;48.10;26.67;;;0.40;99.90;;;;;;5051156;28;20094;-66
2024/01/20 00:55:07;;;;;;;44.63;23.73;;;0.40;99.90;;;;;;5050321;28;20549;-66
2024/01/20 00:57:33;;;;;;;47.38;25.75;;;0.40;99.90;;;;;;5042257;28;20120;-66
2024/01/20 00:59:59;;;;;;;46.97;26.58;;;0.50;99.90;;;;;;5050893;28;20415;-67
2024/01/20 01:02:25;;;;;;;45.33;28.33;;;0.40;99.90;;;;;;5048668;28;20049;-66
2024/01/20 01:04:51;;;;;;;42.67;23.27;;;0.40;99.90;;;;;;5044795;28;20051;-68
2024/01/20 01:07:16;;;;;;;51.10;28.65;;;0.40;99.90;;;;;;5037072;28;20037;-66
2024/01/20 01:09:42;;;;;;;49.03;28.23;;;0.40;99.90;;;;;;5048919;28;20033;-66
2024/01/20 01:12:08;;;;;;;46.97;25.48;;;0.40;99.90;;;;;;5051168;28;20116;-66
2024/01/20 01:14:33;;;;;;;46.20;25.85;;;0.40;99.90;;;;;;5044379;28;20037;-66
2024/01/20 01:16:59;;;;;;;41.75;24.27;;;0.40;99.90;;;;;;5046206;28;20527;-66
2024/01/20 01:19:25;;;;;;;54.17;28.67;;;0.40;99.90;;;;;;5051730;28;20910;-67
2024/01/20 01:21:50;;;;;;;49.05;26.60;;;0.40;99.90;;;;;;5041816;28;20041;-68
2024/01/20 01:24:16;;;;;;;47.00;24.70;;;0.40;99.90;;;;;;5041979;28;20049;-68
2024/01/20 01:26:42;;;;;;;50.85;27.23;;;0.30;99.90;;;;;;5053374;28;20073;-68
2024/01/20 01:29:07;;;;;;;50.00;26.23;;;0.30;99.90;;;;;;5054068;28;20029;-68
2024/01/20 01:31:33;;;;;;;39.45;22.02;;;0.20;99.90;;;;;;5050400;28;20092;-67
2024/01/20 01:33:59;;;;;;;46.28;27.45;;;0.20;99.90;;;;;;5054044;28;20056;-67
2024/01/20 01:36:24;;;;;;;55.22;28.52;;;0.20;99.90;;;;;;5054409;28;20049;-67
2024/01/20 01:38:50;;;;;;;51.00;28.85;;;0.20;99.90;;;;;;5042064;28;20163;-67
2024/01/20 01:41:15;;;;;;;53.20;29.88;;;0.20;99.90;;;;;;5048650;28;20049;-68
2024/01/20 01:43:41;;;;;;;47.05;28.75;;;0.20;99.90;;;;;;5054707;28;20124;-67
2024/01/20 01:46:07;;;;;;;58.25;33.97;;;0.20;99.90;;;;;;5054531;28;20095;-67
2024/01/20 01:48:33;;;;;;;54.33;30.30;;;0.20;99.90;;;;;;5046931;28;20033;-67
2024/01/20 01:51:03;;;;;;;55.13;31.80;;;0.20;99.90;;;;;;5043552;28;20048;-67
2024/01/20 01:53:29;;;;;;;57.28;31.98;;;0.20;99.90;;;;;;5054323;28;20513;-67
2024/01/20 01:55:55;;;;;;;50.70;29.67;;;0.20;99.90;;;;;;5045781;28;20040;-68
2024/01/20 01:58:21;;;;;;;56.65;28.55;;;0.20;99.90;;;;;;5044852;28;20132;-68
2024/01/20 02:00:47;;;;;;;56.38;32.88;;;0.20;99.90;;;;;;5054531;28;20048;-67
2024/01/20 02:03:13;;;;;;;53.72;29.75;;;0.20;99.90;;;;;;5053191;28;20053;-68
2024/01/20 02:05:39;;;;;;;65.57;36.95;;;0.10;99.90;;;;;;5048049;28;20045;-67
2024/01/20 02:08:06;;;;;;;47.22;25.63;;;0.10;99.90;;;;;;5053608;28;20048;-68
2024/01/20 02:10:32;;;;;;;59.83;33.67;;;0.10;99.90;;;;;;5054325;28;20422;-67
2024/01/20 02:12:58;;;;;;;60.90;35.55;;;0.10;99.90;;;;;;5036466;28;20033;-67
2024/01/20 02:15:24;;;;;;;68.28;38.35;;;0.10;99.90;;;;;;5042809;28;20567;-67
2024/01/20 02:17:51;;;;;;;55.83;34.22;;;0.10;99.90;;;;;;5052039;28;20036;-67
2024/01/20 02:20:16;;;;;;;62.33;35.85;;;0.00;99.90;;;;;;5053837;28;20033;-67
2024/01/20 02:22:42;;;;;;;56.05;31.83;;;0.00;99.90;;;;;;5043616;28;20501;-66
2024/01/20 02:25:07;;;;;;;63.53;35.72;;;0.00;99.90;;;;;;5049279;28;20040;-67
2024/01/20 02:27:33;;;;;;;56.13;31.23;;;0.00;99.90;;;;;;5053025;28;20041;-67
2024/01/20 02:29:58;;;;;;;56.35;32.10;;;0.00;99.90;;;;;;5043277;28;20506;-67
2024/01/20 02:32:24;;;;;;;58.67;33.33;;;0.10;99.90;;;;;;5043009;28;20046;-67
2024/01/20 02:34:50;;;;;;;55.40;32.35;;;0.00;99.90;;;;;;5052062;28;20048;-67
2024/01/20 02:37:15;;;;;;;56.42;32.83;;;0.00;99.90;;;;;;5053863;28;20033;-68
2024/01/20 02:39:41;;;;;;;56.95;32.60;;;0.00;99.90;;;;;;5054473;28;20584;-67
2024/01/20 02:42:08;;;;;;;59.45;34.17;;;-0.10;99.90;;;;;;5048347;28;20127;-67
2024/01/20 02:44:35;;;;;;;58.05;33.35;;;-0.10;99.90;;;;;;5052164;28;20124;-68
2024/01/20 02:47:01;;;;;;;43.63;23.55;;;-0.10;99.90;;;;;;5040657;28;20076;-67
2024/01/20 02:49:27;;;;;;;58.63;32.25;;;-0.10;99.90;;;;;;5048633;28;20049;-67
2024/01/20 02:51:52;;;;;;;68.25;35.35;;;-0.20;99.90;;;;;;5052480;28;20040;-67
2024/01/20 02:54:18;;;;;;;65.57;34.83;;;-0.20;99.90;;;;;;5047261;28;20499;-67
2024/01/20 02:56:43;;;;;;;61.58;29.40;;;-0.20;99.90;;;;;;5040608;28;20426;-67
2024/01/20 02:59:09;;;;;;;69.03;37.47;;;-0.20;99.90;;;;;;5051562;28;20415;-67
2024/01/20 03:01:34;;;;;;;56.38;32.72;;;-0.20;99.90;;;;;;5053266;28;20132;-67
2024/01/20 03:04:00;;;;;;;51.80;27.65;;;-0.30;99.90;;;;;;5040593;28;20499;-67
2024/01/20 03:06:26;;;;;;;60.63;31.48;;;-0.30;99.90;;;;;;5050386;28;20045;-67
2024/01/20 03:08:51;;;;;;;58.05;31.95;;;-0.20;99.90;;;;;;5052918;28;20036;-67
2024/01/20 03:11:17;;;;;;;58.70;31.45;;;-0.30;99.90;;;;;;5052040;28;20509;-67
2024/01/20 03:13:42;;;;;;;60.47;31.85;;;-0.30;99.90;;;;;;5039504;28;20033;-68
2024/01/20 03:16:09;;;;;;;63.22;35.67;;;-0.20;99.90;;;;;;5048257;28;20049;-66
2024/01/20 03:18:37;;;;;;;64.47;35.90;;;-0.20;99.90;;;;;;5053338;28;20064;-67
2024/01/20 03:21:03;;;;;;;66.15;35.10;;;-0.20;99.90;;;;;;5047519;28;20049;-67
2024/01/20 03:23:29;;;;;;;69.70;37.35;;;-0.20;99.90;;;;;;5043902;28;20076;-67
2024/01/20 03:25:54;;;;;;;66.03;36.58;;;-0.20;99.90;;;;;;5052639;28;20060;-68
2024/01/20 03:28:21;;;;;;;69.35;35.20;;;-0.20;99.90;;;;;;5047560;28;20175;-67
2024/01/20 03:30:47;;;;;;;62.03;32.50;;;-0.20;99.90;;;;;;5049647;28;20037;-68
2024/01/20 03:33:12;;;;;;;70.30;34.90;;;-0.20;99.90;;;;;;5052216;28;20052;-67
2024/01/20 03:35:38;;;;;;;62.08;33.25;;;-0.20;99.90;;;;;;5049905;28;20029;-67
2024/01/20 03:38:04;;;;;;;60.53;30.08;;;-0.30;99.90;;;;;;5038465;28;20037;-67
2024/01/20 03:40:30;;;;;;;62.60;33.88;;;-0.30;99.90;;;;;;5049216;28;20044;-67
2024/01/20 03:42:55;;;;;;;70.32;32.28;;;-0.30;99.90;;;;;;5050954;28;20098;-67
2024/01/20 03:45:21;;;;;;;64.20;31.98;;;-0.30;99.90;;;;;;5049135;28;20044;-67
2024/01/20 03:47:47;;;;;;;60.90;30.27;;;-0.30;99.90;;;;;;5041779;28;20403;-66
2024/01/20 03:50:12;;;;;;;73.25;35.30;;;-0.30;99.90;;;;;;5052148;28;20491;-66
2024/01/20 03:52:38;;;;;;;57.20;28.77;;;-0.30;99.90;;;;;;5049192;28;20760;-68
2024/01/20 03:55:04;;;;;;;68.18;30.83;;;-0.30;99.90;;;;;;5049848;28;20503;-67
2024/01/20 03:57:30;;;;;;;67.70;31.88;;;-0.30;99.90;;;;;;5051946;28;20033;-66
2024/01/20 03:59:55;;;;;;;69.88;34.65;;;-0.40;99.90;;;;;;5052696;28;20519;-66
2024/01/20 04:02:21;;;;;;;57.20;28.08;;;-0.30;99.90;;;;;;5052001;28;20048;-66
2024/01/20 04:04:46;;;;;;;66.85;32.17;;;-0.30;99.90;;;;;;5038655;28;20063;-67
2024/01/20 04:07:12;;;;;;;71.43;33.53;;;-0.30;99.90;;;;;;5051956;28;20048;-67
2024/01/20 04:09:37;;;;;;;73.70;36.75;;;-0.30;99.90;;;;;;5046063;28;20038;-66
2024/01/20 04:12:04;;;;;;;72.53;37.05;;;-0.30;99.90;;;;;;5039913;28;20060;-66
2024/01/20 04:14:30;;;;;;;73.10;34.15;;;-0.20;99.90;;;;;;5048704;28;20648;-66
2024/01/20 04:16:55;;;;;;;69.18;31.95;;;-0.20;99.90;;;;;;5051928;28;20119;-66
2024/01/20 04:19:21;;;;;;;56.85;26.50;;;-0.20;99.90;;;;;;5047931;28;20044;-66
2024/01/20 04:21:46;;;;;;;76.15;34.58;;;-0.20;99.90;;;;;;5042491;28;20052;-67
2024/01/20 04:24:12;;;;;;;77.85;34.03;;;-0.20;99.90;;;;;;5049368;28;20044;-66
2024/01/20 04:26:38;;;;;;;64.07;29.95;;;-0.30;99.90;;;;;;5041893;28;20051;-66
2024/01/20 04:29:03;;;;;;;62.80;28.92;;;-0.30;99.90;;;;;;5043313;28;20059;-66
2024/01/20 04:31:29;;;;;;;74.10;29.27;;;-0.40;99.90;;;;;;5051517;28;20040;-66
2024/01/20 04:33:55;;;;;;;76.30;32.45;;;-0.30;99.90;;;;;;5050727;28;20075;-66
2024/01/20 04:36:21;;;;;;;67.18;29.52;;;-0.40;99.90;;;;;;5046671;28;20044;-66
2024/01/20 04:38:47;;;;;;;68.35;29.27;;;-0.40;99.90;;;;;;5047387;28;20047;-66
2024/01/20 04:41:12;;;;;;;69.45;28.58;;;-0.40;99.90;;;;;;5050385;28;20041;-67
2024/01/20 04:43:38;;;;;;;70.03;30.42;;;-0.40;99.90;;;;;;5043219;28;20124;-65
2024/01/20 04:46:04;;;;;;;73.10;32.95;;;-0.40;99.90;;;;;;5045433;28;20076;-65
2024/01/20 04:48:31;;;;;;;72.18;29.48;;;-0.40;99.90;;;;;;5051549;28;20032;-66
2024/01/20 04:50:56;;;;;;;68.05;27.10;;;-0.40;99.90;;;;;;5051522;28;20053;-65
2024/01/20 04:53:22;;;;;;;78.95;35.88;;;-0.50;99.90;;;;;;5038675;28;20037;-65
2024/01/20 04:55:48;;;;;;;75.20;35.33;;;-0.50;99.90;;;;;;5043275;28;20542;-66
2024/01/20 04:58:13;;;;;;;74.57;31.35;;;-0.50;99.90;;;;;;5036812;28;20049;-66
2024/01/20 05:00:39;;;;;;;75.95;31.80;;;-0.50;99.90;;;;;;5035772;28;20037;-66
2024/01/20 05:03:05;;;;;;;70.25;31.60;;;-0.50;99.90;;;;;;5037151;28;20048;-65
2024/01/20 05:05:30;;;;;;;73.22;30.27;;;-0.50;99.90;;;;;;5051016;28;20071;-66
2024/01/20 05:07:56;;;;;;;60.00;24.20;;;-0.50;99.90;;;;;;5051015;28;20040;-65
2024/01/20 05:10:21;;;;;;;76.65;32.63;;;-0.50;99.90;;;;;;5040929;28;20087;-67
2024/01/20 05:12:47;;;;;;;69.50;27.05;;;-0.50;99.90;;;;;;5043240;28;20045;-65
2024/01/20 05:15:13;;;;;;;70.53;29.75;;;-0.50;99.90;;;;;;5051262;28;20036;-66
2024/01/20 05:17:39;;;;;;;60.10;26.23;;;-0.60;99.90;;;;;;5036239;28;20068;-65
2024/01/20 05:20:05;;;;;;;67.85;28.95;;;-0.60;99.90;;;;;;5048422;28;20033;-66
2024/01/20 05:22:31;;;;;;;72.47;27.20;;;-0.60;99.90;;;;;;5050235;28;20083;-66
2024/01/20 05:24:57;;;;;;;63.72;26.67;;;-0.60;99.90;;;;;;5042805;28;20029;-66
2024/01/20 05:27:22;;;;;;;72.43;29.13;;;-0.60;99.90;;;;;;5043406;28;20135;-66
2024/01/20 05:29:48;;;;;;;58.97;24.30;;;-0.60;99.90;;;;;;5051020;28;20513;-66
2024/01/20 05:32:15;;;;;;;59.30;24.70;;;-0.60;99.90;;;;;;5050703;28;20163;-67
2024/01/20 05:34:40;;;;;;;64.50;26.13;;;-0.60;99.90;;;;;;5041037;28;20059;-66
2024/01/20 05:37:06;;;;;;;68.90;29.98;;;-0.60;99.90;;;;;;5045905;28;20116;-66
2024/01/20 05:39:32;;;;;;;54.10;23.20;;;-0.60;99.90;;;;;;5050387;28;20117;-67
2024/01/20 05:41:57;;;;;;;58.20;25.75;;;-0.50;99.90;;;;;;5048809;28;20044;-66
2024/01/20 05:44:23;;;;;;;63.38;28.05;;;-0.60;99.90;;;;;;5034027;28;20040;-66
2024/01/20 05:46:49;;;;;;;64.97;26.85;;;-0.60;99.90;;;;;;5043890;28;20037;-66
2024/01/20 05:49:14;;;;;;;72.40;26.85;;;-0.50;99.90;;;;;;5047558;28;20037;-66
2024/01/20 05:51:40;;;;;;;62.78;24.85;;;-0.60;99.90;;;;;;5039379;28;20044;-67
2024/01/20 05:54:05;;;;;;;70.78;28.38;;;-0.50;99.90;;;;;;5046997;28;20037;-66
2024/01/20 05:56:31;;;;;;;71.00;31.20;;;-0.50;99.90;;;;;;5049899;28;20047;-67
2024/01/20 05:58:56;;;;;;;70.22;26.58;;;-0.50;99.90;;;;;;5047852;28;20086;-66
2024/01/20 06:01:22;;;;;;;63.58;28.52;;;-0.50;99.90;;;;;;5029341;28;20076;-67
2024/01/20 06:03:47;;;;;;;60.15;26.55;;;-0.50;99.90;;;;;;5042479;28;20074;-66
2024/01/20 06:06:13;;;;;;;67.68;25.65;;;-0.50;99.90;;;;;;5035773;28;20049;-66
2024/01/20 06:08:38;;;;;;;59.95;25.58;;;-0.50;99.90;;;;;;5044179;28;20037;-67
2024/01/20 06:11:04;;;;;;;64.20;28.30;;;-0.50;99.90;;;;;;5040806;28;20040;-67
2024/01/20 06:13:29;;;;;;;53.92;23.02;;;-0.50;99.90;;;;;;5034872;28;20122;-65
2024/01/20 06:15:58;;;;;;;62.83;27.98;;;-0.50;99.90;;;;;;5040902;28;20041;-67
2024/01/20 06:18:24;;;;;;;60.20;25.95;;;-0.50;99.90;;;;;;5040406;28;20128;-66
2024/01/20 06:20:49;;;;;;;66.38;26.25;;;-0.60;99.90;;;;;;5041975;28;20094;-67
2024/01/20 06:23:15;;;;;;;67.40;27.90;;;-0.60;99.90;;;;;;5034784;28;20404;-67
2024/01/20 06:25:41;;;;;;;63.50;25.58;;;-0.70;99.90;;;;;;5041543;28;20586;-67
2024/01/20 06:28:06;;;;;;;58.35;24.83;;;-0.60;99.90;;;;;;5040918;28;20141;-66
2024/01/20 06:30:32;;;;;;;59.95;23.88;;;-0.60;99.90;;;;;;5043842;28;20040;-66
2024/01/20 06:32:58;;;;;;;53.03;22.70;;;-0.60;99.90;;;;;;5038903;28;20044;-64
2024/01/20 06:35:24;;;;;;;53.45;23.02;;;-0.60;99.90;;;;;;5044005;28;20037;-66
2024/01/20 06:37:50;;;;;;;55.22;24.20;;;-0.60;99.90;;;;;;5040302;28;20044;-67
2024/01/20 06:40:16;;;;;;;51.75;21.50;;;-0.50;99.90;;;;;;5033304;28;20033;-64
2024/01/20 06:42:42;;;;;;;55.05;22.23;;;-0.50;99.90;;;;;;5039804;28;20550;-67
2024/01/20 06:45:08;;;;;;;46.60;19.50;;;-0.50;99.90;;;;;;5026232;28;20041;-66
2024/01/20 06:47:34;;;;;;;61.03;23.73;;;-0.50;99.90;;;;;;5040258;28;20132;-66
2024/01/20 06:50:00;;;;;;;58.05;24.27;;;-0.50;99.90;;;;;;5036786;28;20080;-68
2024/01/20 06:52:25;;;;;;;58.42;27.02;;;-0.50;99.90;;;;;;5037991;28;20045;-65
2024/01/20 06:54:51;;;;;;;48.40;21.75;;;-0.50;99.90;;;;;;5042636;28;20052;-67
2024/01/20 06:57:16;;;;;;;57.00;22.52;;;-0.50;99.90;;;;;;5039405;28;20041;-67
2024/01/20 06:59:42;;;;;;;56.13;23.95;;;-0.50;99.90;;;;;;5040514;28;20083;-67
2024/01/20 07:02:08;;;;;;;57.03;22.85;;;-0.40;99.90;;;;;;5043110;28;20052;-68
2024/01/20 07:04:33;;;;;;;54.80;25.15;;;-0.40;99.90;;;;;;5038731;28;20411;-67
2024/01/20 07:06:59;;;;;;;54.90;22.90;;;-0.50;99.90;;;;;;5036320;28;20084;-66
2024/01/20 07:09:25;;;;;;;61.80;25.55;;;-0.50;99.90;;;;;;5042117;28;20084;-67
2024/01/20 07:11:53;;;;;;;55.70;23.88;;;-0.50;99.90;;;;;;5050056;28;20040;-67
2024/01/20 07:14:19;;;;;;;55.00;22.55;;;-0.50;99.90;;;;;;5023304;28;20069;-66
2024/01/20 07:16:45;;;;;;;61.63;26.02;;;-0.50;99.90;;;;;;5048860;28;20040;-66
2024/01/20 07:19:11;;;;;;;59.65;24.90;;;-0.50;99.90;;;;;;5049897;28;20047;-68
2024/01/20 07:21:36;;;;;;;60.80;28.60;;;-0.50;99.90;;;;;;5049677;28;20402;-67
2024/01/20 07:24:04;;;;;;;64.00;28.13;;;-0.40;99.90;;;;;;5041322;28;20044;-67
2024/01/20 07:26:30;;;;;;;62.58;26.55;;;-0.40;99.90;;;;;;5046817;28;20449;-67
2024/01/20 07:28:55;;;;;;;65.18;26.73;;;-0.40;99.90;;;;;;5049963;28;20044;-67
2024/01/20 07:31:22;;;;;;;59.22;24.00;;;-0.40;99.90;;;;;;5033539;28;20090;-67
2024/01/20 07:33:48;;;;;;;51.28;22.23;;;-0.40;99.90;;;;;;5045407;28;20041;-66
2024/01/20 07:36:14;;;;;;;52.35;21.85;;;-0.50;99.90;;;;;;5048315;28;20098;-66
2024/01/20 07:38:39;;;;;;;61.55;24.98;;;-0.40;99.90;;;;;;5047585;28;20044;-67
2024/01/20 07:41:06;;;;;;;64.53;26.10;;;-0.50;99.90;;;;;;5040440;28;20036;-67
2024/01/20 07:43:32;;;;;;;52.30;21.27;;;-0.50;99.90;;;;;;5046682;28;20053;-66
2024/01/20 07:45:57;;;;;;;50.65;20.75;;;-0.50;99.90;;;;;;5049519;28;20503;-67
2024/01/20 07:48:23;;;;;;;58.15;23.10;;;-0.50;99.90;;;;;;5035625;28;20060;-67
2024/01/20 07:50:49;;;;;;;60.95;23.23;;;-0.40;99.90;;;;;;5041498;28;20128;-67
2024/01/20 07:53:14;;;;;;;49.55;21.30;;;-0.50;99.90;;;;;;5048998;28;20037;-67
2024/01/20 07:55:40;;;;;;;58.33;22.92;;;-0.40;99.90;;;;;;5049326;28;20044;-67
2024/01/20 07:58:05;;;;;;;65.10;24.52;;;-0.40;99.90;;;;;;5038667;28;20037;-67
2024/01/20 08:00:31;;;;;;;57.60;23.42;;;-0.40;99.90;;;;;;5047132;28;20176;-68
2024/01/20 08:02:56;;;;;;;52.28;21.98;;;-0.40;99.90;;;;;;5048287;28;20037;-67
2024/01/20 08:05:22;;;;;;;60.95;25.30;;;-0.30;99.90;;;;;;5037303;28;20092;-67
2024/01/20 08:07:48;;;;;;;62.13;26.02;;;-0.30;99.90;;;;;;5047311;28;20708;-68
2024/01/20 08:10:14;;;;;;;52.75;22.80;;;-0.30;99.90;;;;;;5047858;28;20091;-68
2024/01/20 08:12:40;;;;;;;48.75;22.48;;;-0.20;99.90;;;;;;5032998;28;20033;-68
2024/01/20 08:15:07;;;;;;;53.55;24.92;;;-0.10;99.90;;;;;;5035432;28;20124;-68
2024/01/20 08:17:32;;;;;;;65.63;25.73;;;-0.10;99.90;;;;;;5046032;28;20049;-68
2024/01/20 08:19:58;;;;;;;57.25;24.67;;;-0.10;99.90;;;;;;5045426;28;20052;-68
2024/01/20 08:22:23;;;;;;;59.88;26.52;;;-0.10;99.90;;;;;;5042343;28;20057;-68
2024/01/20 08:24:49;;;;;;;58.63;25.70;;;0.00;99.90;;;;;;5042605;28;20041;-68
2024/01/20 08:27:14;;;;;;;59.65;25.40;;;0.10;99.90;;;;;;5044133;28;20104;-68
2024/01/20 08:29:40;;;;;;;55.22;23.27;;;0.10;99.90;;;;;;5056521;28;20041;-68
2024/01/20 08:32:06;;;;;;;63.05;27.02;;;0.20;99.90;;;;;;5048485;28;20029;-68
2024/01/20 08:34:31;;;;;;;61.10;25.77;;;0.30;99.90;;;;;;5044078;28;20044;-68
2024/01/20 08:36:57;;;;;;;50.80;24.05;;;0.30;99.90;;;;;;5039515;28;20144;-71
2024/01/20 08:39:23;;;;;;;59.65;25.95;;;0.40;99.90;;;;;;5037846;28;20124;-70
2024/01/20 08:41:51;;;;;;;49.63;23.63;;;0.50;99.90;;;;;;5047528;28;20044;-67
2024/01/20 08:44:17;;;;;;;57.65;24.73;;;0.50;99.90;;;;;;5045663;28;20355;-69
2024/01/20 08:46:44;;;;;;;57.58;26.35;;;0.50;99.90;;;;;;5042155;28;20612;-68
2024/01/20 08:49:09;;;;;;;56.17;22.02;;;0.60;99.90;;;;;;5049079;28;20102;-66
2024/01/20 08:51:35;;;;;;;54.08;19.98;;;0.70;99.90;;;;;;5050511;28;20417;-70
2024/01/20 08:54:00;;;;;;;52.05;22.27;;;0.80;99.90;;;;;;5042551;28;20568;-68
2024/01/20 08:56:26;;;;;;;55.90;24.42;;;0.80;99.90;;;;;;5039384;28;20041;-66
2024/01/20 08:58:51;;;;;;;42.50;18.77;;;0.90;99.90;;;;;;5044427;28;20495;-68
2024/01/20 09:01:17;;;;;;;42.95;17.92;;;0.90;99.90;;;;;;5051010;28;20044;-67
2024/01/20 09:03:43;;;;;;;46.20;19.88;;;0.90;99.90;;;;;;5041853;28;20033;-68
2024/01/20 09:06:11;;;;;;;45.28;20.38;;;0.90;99.90;;;;;;5047646;28;20131;-67
2024/01/20 09:08:37;;;;;;;45.50;19.13;;;0.90;99.90;;;;;;5051447;28;20045;-68
2024/01/20 09:11:03;;;;;;;43.60;20.15;;;0.90;99.90;;;;;;5047321;28;20399;-67
2024/01/20 09:13:29;;;;;;;41.45;18.67;;;0.90;99.90;;;;;;5047565;28;20037;-68
2024/01/20 09:15:54;;;;;;;47.63;19.98;;;0.90;99.90;;;;;;5050234;28;20036;-67
2024/01/20 09:18:20;;;;;;;43.92;20.52;;;1.00;99.90;;;;;;5044695;28;20515;-68
2024/01/20 09:20:46;;;;;;;43.08;17.63;;;1.00;99.90;;;;;;5036375;28;20047;-65
2024/01/20 09:23:11;;;;;;;36.17;16.75;;;1.10;99.90;;;;;;5046907;28;20044;-65
2024/01/20 09:25:37;;;;;;;45.22;18.30;;;1.10;99.90;;;;;;5051097;28;20589;-66
2024/01/20 09:28:05;;;;;;;41.17;16.65;;;1.10;99.90;;;;;;5041659;28;20395;-66
2024/01/20 09:30:31;;;;;;;39.65;18.23;;;1.20;99.90;;;;;;5044490;28;20033;-67
2024/01/20 09:32:57;;;;;;;42.63;18.73;;;1.20;99.90;;;;;;5050580;28;20047;-66
2024/01/20 09:35:22;;;;;;;40.75;16.80;;;1.20;99.90;;;;;;5040769;28;20112;-68
2024/01/20 09:37:48;;;;;;;44.97;20.38;;;1.30;99.90;;;;;;5030821;28;20037;-67
2024/01/20 09:40:15;;;;;;;42.00;18.40;;;1.30;99.90;;;;;;5040192;28;20037;-67
2024/01/20 09:42:42;;;;;;;40.80;16.27;;;1.30;99.90;;;;;;5046490;28;20037;-66
2024/01/20 09:45:07;;;;;;;41.63;18.75;;;1.40;99.90;;;;;;5047883;28;20086;-67
2024/01/20 09:47:34;;;;;;;41.53;19.05;;;1.40;99.90;;;;;;5041933;28;20049;-68
2024/01/20 09:49:59;;;;;;;41.95;19.35;;;1.40;99.90;;;;;;5048678;28;20048;-68
2024/01/20 09:52:29;;;;;;;34.50;14.88;;;1.40;99.90;;;;;;5054379;28;20040;-67
2024/01/20 09:55:10;;;;;;;48.00;19.65;;;1.50;99.90;;;;;;5046555;28;20507;-67
2024/01/20 09:57:36;;;;;;;;;;;1.50;99.90;;;;;;5050770;28;20051;-66
2024/01/20 10:00:04;;;;;;;41.47;17.15;;;1.60;99.90;;;;;;5052922;28;19956;-67
2024/01/20 10:02:32;;;;;;;39.90;17.63;;;1.60;99.90;;;;;;5032623;28;20041;-67
2024/01/20 10:05:04;;;;;;;40.08;17.70;;;1.60;99.90;;;;;;5037422;28;20457;-66
2024/01/20 10:07:30;;;;;;;33.42;14.50;;;1.60;99.90;;;;;;5037296;28;20492;-68
2024/01/20 10:09:56;;;;;;;39.05;16.27;;;1.60;99.90;;;;;;5044524;28;20399;-66
2024/01/20 10:12:23;;;;;;;34.35;15.68;;;1.70;99.90;;;;;;5043109;28;20040;-66
2024/01/20 10:14:49;;;;;;;35.90;16.38;;;1.70;99.90;;;;;;5045673;28;20506;-67
2024/01/20 10:17:15;;;;;;;38.92;17.20;;;1.70;99.90;;;;;;5050045;28;20170;-68
2024/01/20 10:19:40;;;;;;;35.13;16.90;;;1.70;99.90;;;;;;5030056;28;20127;-69
2024/01/20 10:22:10;;;;;;;36.88;15.73;;;1.70;99.90;;;;;;5041925;28;20049;-67
2024/01/20 10:24:49;;;;;;;38.55;17.55;;;1.70;99.90;;;;;;5048843;28;20045;-66
2024/01/20 10:27:19;;;;;;;37.63;17.98;;;1.70;99.90;;;;;;5042805;28;20037;-68
2024/01/20 10:29:46;;;;;;;35.95;16.00;;;1.80;99.90;;;;;;5044703;28;20050;-67
2024/01/20 10:32:13;;;;;;;37.97;16.80;;;1.80;99.90;;;;;;5047142;28;20045;-68
2024/01/20 10:34:38;;;;;;;34.90;14.85;;;1.80;99.90;;;;;;5037277;28;20713;-66
2024/01/20 10:37:12;;;;;;;37.35;17.52;;;1.80;99.90;;;;;;5044858;28;20128;-68
2024/01/20 10:39:42;;;;;;;37.42;18.02;;;1.90;99.90;;;;;;5053462;28;20033;-68
2024/01/20 10:42:15;;;;;;;35.78;17.15;;;1.90;99.90;;;;;;5049838;28;20372;-68
2024/01/20 10:44:59;;;;;;;34.88;17.52;;;1.90;99.90;;;;;;5046876;28;20603;-67
2024/01/20 10:47:58;;;;;;;36.22;14.23;;;1.90;99.90;;;;;;5046664;28;20072;-68
2024/01/20 10:50:25;;;;;;;34.38;15.82;;;1.90;99.90;;;;;;5044772;28;20053;-67
2024/01/20 10:52:51;;;;;;;41.05;19.98;;;1.90;99.90;;;;;;5044197;28;20028;-67
2024/01/20 10:55:18;;;;;;;41.17;18.83;;;1.90;99.90;;;;;;5061698;28;20060;-68
2024/01/20 10:57:44;;;;;;;28.75;14.65;;;1.90;99.90;;;;;;5053684;28;20557;-67
2024/01/20 11:00:11;;;;;;;29.08;13.90;;;1.90;99.90;;;;;;5053573;28;20048;-68
2024/01/20 11:02:36;;;;;;;37.30;15.27;;;2.00;99.90;;;;;;5034319;28;20509;-68
2024/01/20 11:05:03;;;;;;;36.53;15.57;;;2.00;99.90;;;;;;5036058;28;20041;-68
2024/01/20 11:07:29;;;;;;;38.80;16.13;;;2.00;99.90;;;;;;5038280;28;20041;-68
2024/01/20 11:10:01;;;;;;;38.63;16.92;;;2.00;99.90;;;;;;5051647;28;20036;-69
2024/01/20 11:12:28;;;;;;;30.48;14.18;;;2.00;99.90;;;;;;5051623;28;20041;-68
2024/01/20 11:14:55;;;;;;;29.98;14.52;;;2.10;99.90;;;;;;5051504;28;20056;-69
2024/01/20 11:17:22;;;;;;;35.45;17.45;;;2.10;99.90;;;;;;5048133;28;20498;-68
2024/01/20 11:19:47;;;;;;;36.38;16.92;;;2.10;99.90;;;;;;5034158;28;20045;-69
2024/01/20 11:22:32;;;;;;;38.65;15.85;;;2.10;99.90;;;;;;5037059;28;20055;-69
2024/01/20 11:25:04;;;;;;;35.95;15.05;;;2.10;99.90;;;;;;5044088;28;20071;-67
2024/01/20 11:27:30;;;;;;;34.33;14.55;;;2.10;99.90;;;;;;5039602;28;20041;-68
2024/01/20 11:30:08;;;;;;;28.45;13.40;;;2.20;99.90;;;;;;5046136;28;20048;-67
2024/01/20 11:32:34;;;;;;;33.67;14.23;;;2.20;99.90;;;;;;5052624;28;20047;-68
2024/01/20 11:35:00;;;;;;;36.33;16.15;;;2.20;99.90;;;;;;5053095;28;20033;-68
2024/01/20 11:37:27;;;;;;;30.50;14.13;;;2.20;99.90;;;;;;5046416;28;20060;-68
2024/01/20 11:40:22;;;;;;;29.85;14.93;;;2.20;99.90;;;;;;5051202;28;20040;-68
2024/01/20 11:42:48;;;;;;;31.55;15.30;;;2.20;99.90;;;;;;5012838;28;20059;-69
2024/01/20 11:45:13;;;;;;;31.98;16.35;;;2.20;99.90;;;;;;5034324;28;20070;-69
2024/01/20 11:47:40;;;;;;;36.45;15.98;;;2.30;99.90;;;;;;5050080;28;20082;-68
2024/01/20 11:50:06;;;;;;;32.67;15.75;;;2.30;99.90;;;;;;5066149;28;20036;-69
2024/01/20 11:52:32;;;;;;;37.80;17.33;;;2.30;99.90;;;;;;5050853;28;20029;-69
2024/01/20 11:54:58;;;;;;;35.40;15.45;;;2.30;99.90;;;;;;5032216;28;20106;-69
2024/01/20 11:57:29;;;;;;;32.67;14.27;;;2.30;99.90;;;;;;5043086;28;20115;-69
2024/01/20 11:59:57;;;;;;;37.85;16.88;;;2.30;99.90;;;;;;5042341;28;20061;-69
2024/01/20 12:02:23;;;;;;;33.35;15.40;;;2.30;99.90;;;;;;5047973;28;20071;-69
2024/01/20 12:04:49;;;;;;;38.55;16.40;;;2.30;99.90;;;;;;5050957;28;20598;-70
2024/01/20 12:07:15;;;;;;;36.75;15.40;;;2.30;99.90;;;;;;5042793;28;20041;-68
2024/01/20 12:09:47;;;;;;;37.78;16.23;;;2.40;99.90;;;;;;5026381;28;20040;-69
2024/01/20 12:12:14;;;;;;;30.60;14.40;;;2.40;99.90;;;;;;5031648;28;20041;-68
2024/01/20 12:14:41;;;;;;;32.00;15.07;;;2.40;99.90;;;;;;5044461;28;20041;-70
2024/01/20 12:17:07;;;;;;;31.45;14.88;;;2.40;99.90;;;;;;5039770;28;20053;-69
2024/01/20 12:19:32;;;;;;;35.20;16.05;;;2.50;99.90;;;;;;5051695;28;20427;-69
2024/01/20 12:21:58;;;;;;;30.55;14.48;;;2.50;99.90;;;;;;5046087;28;20049;-68
2024/01/20 12:24:24;;;;;;;32.80;16.95;;;2.50;99.90;;;;;;5026629;28;20513;-69
2024/01/20 12:26:50;;;;;;;34.58;15.70;;;2.50;99.90;;;;;;5048052;28;20029;-69
2024/01/20 12:29:15;;;;;;;30.55;14.45;;;2.60;99.90;;;;;;5039782;28;20492;-69